sensor_id;sensor_type;location;lat;lon;timestamp;temperature;humidity
54429;DHT22;40337;52.978;6.310;2024-03-17T00:00:31;5.10;99.90
54429;DHT22;40337;52.978;6.310;2024-03-17T00:02:57;5.10;99.90
54429;DHT22;40337;52.978;6.310;2024-03-17T00:05:22;5.10;99.90
54429;DHT22;40337;52.978;6.310;2024-03-17T00:07:48;5.00;99.90
54429;DHT22;40337;52.978;6.310;2024-03-17T00:10:14;5.10;99.90
54429;DHT22;40337;52.978;6.310;2024-03-17T00:12:40;5.00;99.90
54429;DHT22;40337;52.978;6.310;2024-03-17T00:15:07;5.00;99.90
54429;DHT22;40337;52.978;6.310;2024-03-17T00:17:33;5.00;99.90
54429;DHT22;40337;52.978;6.310;2024-03-17T00:20:03;4.90;99.90
54429;DHT22;40337;52.978;6.310;2024-03-17T00:22:35;4.90;99.90
54429;DHT22;40337;52.978;6.310;2024-03-17T00:25:05;4.80;99.90
54429;DHT22;40337;52.978;6.310;2024-03-17T00:27:31;4.80;99.90
54429;DHT22;40337;52.978;6.310;2024-03-17T00:29:56;4.80;99.90
54429;DHT22;40337;52.978;6.310;2024-03-17T00:32:22;4.70;99.90
54429;DHT22;40337;52.978;6.310;2024-03-17T00:34:49;4.70;99.90
54429;DHT22;40337;52.978;6.310;2024-03-17T00:37:14;4.70;99.90
54429;DHT22;40337;52.978;6.310;2024-03-17T00:39:40;4.60;99.90
54429;DHT22;40337;52.978;6.310;2024-03-17T00:42:06;4.60;99.90
54429;DHT22;40337;52.978;6.310;2024-03-17T00:44:32;4.60;99.90
54429;DHT22;40337;52.978;6.310;2024-03-17T00:46:57;4.60;99.90
54429;DHT22;40337;52.978;6.310;2024-03-17T00:49:23;4.40;99.90
54429;DHT22;40337;52.978;6.310;2024-03-17T00:51:49;4.40;99.90
54429;DHT22;40337;52.978;6.310;2024-03-17T00:54:15;4.40;99.90
54429;DHT22;40337;52.978;6.310;2024-03-17T00:56:43;4.40;99.90
54429;DHT22;40337;52.978;6.310;2024-03-17T00:59:09;4.40;99.90
54429;DHT22;40337;52.978;6.310;2024-03-17T01:01:34;4.40;99.90
54429;DHT22;40337;52.978;6.310;2024-03-17T01:04:00;4.30;99.90
54429;DHT22;40337;52.978;6.310;2024-03-17T01:06:26;4.40;99.90
54429;DHT22;40337;52.978;6.310;2024-03-17T01:08:51;4.30;99.90
54429;DHT22;40337;52.978;6.310;2024-03-17T01:11:18;4.30;99.90
54429;DHT22;40337;52.978;6.310;2024-03-17T01:13:47;4.30;99.90
54429;DHT22;40337;52.978;6.310;2024-03-17T01:16:16;4.30;99.90
54429;DHT22;40337;52.978;6.310;2024-03-17T01:18:41;4.20;99.90
54429;DHT22;40337;52.978;6.310;2024-03-17T01:21:08;4.10;99.90
54429;DHT22;40337;52.978;6.310;2024-03-17T01:23:34;4.10;99.90
54429;DHT22;40337;52.978;6.310;2024-03-17T01:26:00;4.10;99.90
54429;DHT22;40337;52.978;6.310;2024-03-17T01:28:25;4.10;99.90
54429;DHT22;40337;52.978;6.310;2024-03-17T01:30:52;4.10;99.90
54429;DHT22;40337;52.978;6.310;2024-03-17T01:33:18;4.10;99.90
54429;DHT22;40337;52.978;6.310;2024-03-17T01:35:43;4.10;99.90
54429;DHT22;40337;52.978;6.310;2024-03-17T01:38:09;4.10;99.90
54429;DHT22;40337;52.978;6.310;2024-03-17T01:40:38;4.10;99.90
54429;DHT22;40337;52.978;6.310;2024-03-17T01:43:04;4.10;99.90
54429;DHT22;40337;52.978;6.310;2024-03-17T01:45:31;4.00;99.90
54429;DHT22;40337;52.978;6.310;2024-03-17T01:47:58;4.00;99.90
54429;DHT22;40337;52.978;6.310;2024-03-17T01:50:36;4.10;99.90
54429;DHT22;40337;52.978;6.310;2024-03-17T01:53:06;4.00;99.90
54429;DHT22;40337;52.978;6.310;2024-03-17T01:55:38;4.00;99.90
54429;DHT22;40337;52.978;6.310;2024-03-17T01:58:04;3.90;99.90
54429;DHT22;40337;52.978;6.310;2024-03-17T02:00:34;3.90;99.90
54429;DHT22;40337;52.978;6.310;2024-03-17T02:03:05;3.80;99.90
54429;DHT22;40337;52.978;6.310;2024-03-17T02:05:31;3.80;99.90
54429;DHT22;40337;52.978;6.310;2024-03-17T02:07:57;3.80;99.90
54429;DHT22;40337;52.978;6.310;2024-03-17T02:10:23;3.80;99.90
54429;DHT22;40337;52.978;6.310;2024-03-17T02:12:49;3.80;99.90
54429;DHT22;40337;52.978;6.310;2024-03-17T02:15:14;3.80;99.90
54429;DHT22;40337;52.978;6.310;2024-03-17T02:17:40;3.70;99.90
54429;DHT22;40337;52.978;6.310;2024-03-17T02:20:06;3.80;99.90
54429;DHT22;40337;52.978;6.310;2024-03-17T02:22:34;3.80;99.90
54429;DHT22;40337;52.978;6.310;2024-03-17T02:25:01;3.80;99.90
54429;DHT22;40337;52.978;6.310;2024-03-17T02:27:27;3.80;99.90
54429;DHT22;40337;52.978;6.310;2024-03-17T02:29:53;3.80;99.90
54429;DHT22;40337;52.978;6.310;2024-03-17T02:32:18;3.80;99.90
54429;DHT22;40337;52.978;6.310;2024-03-17T02:34:47;3.80;99.90
54429;DHT22;40337;52.978;6.310;2024-03-17T02:37:13;3.70;99.90
54429;DHT22;40337;52.978;6.310;2024-03-17T02:39:39;3.70;99.90
54429;DHT22;40337;52.978;6.310;2024-03-17T02:42:09;3.80;99.90
54429;DHT22;40337;52.978;6.310;2024-03-17T02:44:36;3.80;99.90
54429;DHT22;40337;52.978;6.310;2024-03-17T02:47:03;3.80;99.90
54429;DHT22;40337;52.978;6.310;2024-03-17T02:49:36;3.90;99.90
54429;DHT22;40337;52.978;6.310;2024-03-17T02:52:08;3.90;99.90
54429;DHT22;40337;52.978;6.310;2024-03-17T02:54:38;4.00;99.90
54429;DHT22;40337;52.978;6.310;2024-03-17T02:57:05;4.00;99.90
54429;DHT22;40337;52.978;6.310;2024-03-17T02:59:32;4.00;99.90
54429;DHT22;40337;52.978;6.310;2024-03-17T03:01:58;4.10;99.90
54429;DHT22;40337;52.978;6.310;2024-03-17T03:04:25;4.10;99.90
54429;DHT22;40337;52.978;6.310;2024-03-17T03:06:51;4.20;99.90
54429;DHT22;40337;52.978;6.310;2024-03-17T03:09:16;4.20;99.90
54429;DHT22;40337;52.978;6.310;2024-03-17T03:11:46;4.20;99.90
54429;DHT22;40337;52.978;6.310;2024-03-17T03:14:12;4.20;99.90
54429;DHT22;40337;52.978;6.310;2024-03-17T03:16:38;4.20;99.90
54429;DHT22;40337;52.978;6.310;2024-03-17T03:19:04;4.20;99.90
54429;DHT22;40337;52.978;6.310;2024-03-17T03:21:33;4.30;99.90
54429;DHT22;40337;52.978;6.310;2024-03-17T03:23:59;4.30;99.90
54429;DHT22;40337;52.978;6.310;2024-03-17T03:26:24;4.30;99.90
54429;DHT22;40337;52.978;6.310;2024-03-17T03:28:50;4.30;99.90
54429;DHT22;40337;52.978;6.310;2024-03-17T03:31:16;4.30;99.90
54429;DHT22;40337;52.978;6.310;2024-03-17T03:33:43;4.30;99.90
54429;DHT22;40337;52.978;6.310;2024-03-17T03:36:10;4.40;99.90
54429;DHT22;40337;52.978;6.310;2024-03-17T03:38:36;4.40;99.90
54429;DHT22;40337;52.978;6.310;2024-03-17T03:41:10;4.40;99.90
54429;DHT22;40337;52.978;6.310;2024-03-17T03:43:36;4.40;99.90
54429;DHT22;40337;52.978;6.310;2024-03-17T03:46:02;4.40;99.90
54429;DHT22;40337;52.978;6.310;2024-03-17T03:48:28;4.40;99.90
54429;DHT22;40337;52.978;6.310;2024-03-17T03:50:54;4.40;99.90
54429;DHT22;40337;52.978;6.310;2024-03-17T03:53:20;4.50;99.90
54429;DHT22;40337;52.978;6.310;2024-03-17T03:55:46;4.50;99.90
54429;DHT22;40337;52.978;6.310;2024-03-17T03:58:12;4.50;99.90
54429;DHT22;40337;52.978;6.310;2024-03-17T04:00:41;4.50;99.90
54429;DHT22;40337;52.978;6.310;2024-03-17T04:03:07;4.50;99.90
54429;DHT22;40337;52.978;6.310;2024-03-17T04:05:33;4.60;99.90
54429;DHT22;40337;52.978;6.310;2024-03-17T04:08:00;4.50;99.90
54429;DHT22;40337;52.978;6.310;2024-03-17T04:10:26;4.60;99.90
54429;DHT22;40337;52.978;6.310;2024-03-17T04:12:53;4.60;99.90
54429;DHT22;40337;52.978;6.310;2024-03-17T04:15:19;4.70;99.90
54429;DHT22;40337;52.978;6.310;2024-03-17T04:17:45;4.70;99.90
54429;DHT22;40337;52.978;6.310;2024-03-17T04:20:11;4.70;99.90
54429;DHT22;40337;52.978;6.310;2024-03-17T04:22:40;4.80;99.90
54429;DHT22;40337;52.978;6.310;2024-03-17T04:25:06;4.80;99.90
54429;DHT22;40337;52.978;6.310;2024-03-17T04:27:32;4.80;99.90
54429;DHT22;40337;52.978;6.310;2024-03-17T04:29:59;4.90;99.90
54429;DHT22;40337;52.978;6.310;2024-03-17T04:32:25;4.80;99.90
54429;DHT22;40337;52.978;6.310;2024-03-17T04:34:52;4.90;99.90
54429;DHT22;40337;52.978;6.310;2024-03-17T04:37:18;4.90;99.90
54429;DHT22;40337;52.978;6.310;2024-03-17T04:39:45;4.90;99.90
54429;DHT22;40337;52.978;6.310;2024-03-17T04:42:12;5.00;99.90
54429;DHT22;40337;52.978;6.310;2024-03-17T04:44:43;5.00;99.90
54429;DHT22;40337;52.978;6.310;2024-03-17T04:47:10;5.00;99.90
54429;DHT22;40337;52.978;6.310;2024-03-17T04:52:02;5.10;99.90
54429;DHT22;40337;52.978;6.310;2024-03-17T04:54:28;5.10;99.90
54429;DHT22;40337;52.978;6.310;2024-03-17T04:56:54;5.20;99.90
54429;DHT22;40337;52.978;6.310;2024-03-17T04:59:19;5.20;99.90
54429;DHT22;40337;52.978;6.310;2024-03-17T05:01:45;5.20;99.90
54429;DHT22;40337;52.978;6.310;2024-03-17T05:04:11;5.20;99.90
54429;DHT22;40337;52.978;6.310;2024-03-17T05:06:36;5.20;99.90
54429;DHT22;40337;52.978;6.310;2024-03-17T05:09:02;5.20;99.90
54429;DHT22;40337;52.978;6.310;2024-03-17T05:11:30;5.30;99.90
54429;DHT22;40337;52.978;6.310;2024-03-17T05:13:56;5.20;99.90
54429;DHT22;40337;52.978;6.310;2024-03-17T05:16:22;5.20;99.90
54429;DHT22;40337;52.978;6.310;2024-03-17T05:18:49;5.30;99.90
54429;DHT22;40337;52.978;6.310;2024-03-17T05:21:15;5.30;99.90
54429;DHT22;40337;52.978;6.310;2024-03-17T05:23:41;5.30;99.90
54429;DHT22;40337;52.978;6.310;2024-03-17T05:26:06;5.30;99.90
54429;DHT22;40337;52.978;6.310;2024-03-17T05:28:32;5.30;99.90
54429;DHT22;40337;52.978;6.310;2024-03-17T05:30:58;5.30;99.90
54429;DHT22;40337;52.978;6.310;2024-03-17T05:33:25;5.30;99.90
54429;DHT22;40337;52.978;6.310;2024-03-17T05:35:56;5.40;99.90
54429;DHT22;40337;52.978;6.310;2024-03-17T05:38:23;5.40;99.90
54429;DHT22;40337;52.978;6.310;2024-03-17T05:41:00;5.40;99.90
54429;DHT22;40337;52.978;6.310;2024-03-17T05:43:27;5.40;99.90
54429;DHT22;40337;52.978;6.310;2024-03-17T05:45:54;5.40;99.90
54429;DHT22;40337;52.978;6.310;2024-03-17T05:48:20;5.40;99.90
54429;DHT22;40337;52.978;6.310;2024-03-17T05:50:46;5.40;99.90
54429;DHT22;40337;52.978;6.310;2024-03-17T05:53:12;5.40;99.90
54429;DHT22;40337;52.978;6.310;2024-03-17T05:55:38;5.50;99.90
54429;DHT22;40337;52.978;6.310;2024-03-17T05:58:06;5.50;99.90
54429;DHT22;40337;52.978;6.310;2024-03-17T06:00:37;5.50;99.90
54429;DHT22;40337;52.978;6.310;2024-03-17T06:03:04;5.50;99.90
54429;DHT22;40337;52.978;6.310;2024-03-17T06:05:38;5.50;99.90
54429;DHT22;40337;52.978;6.310;2024-03-17T06:08:06;5.50;99.90
54429;DHT22;40337;52.978;6.310;2024-03-17T06:10:35;5.50;99.90
54429;DHT22;40337;52.978;6.310;2024-03-17T06:13:01;5.50;99.90
54429;DHT22;40337;52.978;6.310;2024-03-17T06:15:27;5.60;99.90
54429;DHT22;40337;52.978;6.310;2024-03-17T06:17:53;5.60;99.90
54429;DHT22;40337;52.978;6.310;2024-03-17T06:20:20;5.70;99.90
54429;DHT22;40337;52.978;6.310;2024-03-17T06:22:45;5.70;99.90
54429;DHT22;40337;52.978;6.310;2024-03-17T06:25:12;5.80;99.90
54429;DHT22;40337;52.978;6.310;2024-03-17T06:27:37;5.80;99.90
54429;DHT22;40337;52.978;6.310;2024-03-17T06:30:03;5.90;99.90
54429;DHT22;40337;52.978;6.310;2024-03-17T06:32:30;5.90;99.90
54429;DHT22;40337;52.978;6.310;2024-03-17T06:35:01;6.00;99.90
54429;DHT22;40337;52.978;6.310;2024-03-17T06:37:28;6.00;99.90
54429;DHT22;40337;52.978;6.310;2024-03-17T06:39:53;6.10;99.90
54429;DHT22;40337;52.978;6.310;2024-03-17T06:42:19;6.20;99.90
54429;DHT22;40337;52.978;6.310;2024-03-17T06:44:45;6.20;99.90
54429;DHT22;40337;52.978;6.310;2024-03-17T06:47:10;6.30;99.90
54429;DHT22;40337;52.978;6.310;2024-03-17T06:49:36;6.40;99.90
54429;DHT22;40337;52.978;6.310;2024-03-17T06:52:02;6.40;99.90
54429;DHT22;40337;52.978;6.310;2024-03-17T06:54:28;6.50;99.90
54429;DHT22;40337;52.978;6.310;2024-03-17T06:56:53;6.50;99.90
54429;DHT22;40337;52.978;6.310;2024-03-17T06:59:19;6.60;99.90
54429;DHT22;40337;52.978;6.310;2024-03-17T07:01:46;6.70;99.90
54429;DHT22;40337;52.978;6.310;2024-03-17T07:04:16;6.70;99.90
54429;DHT22;40337;52.978;6.310;2024-03-17T07:06:42;6.80;99.90
54429;DHT22;40337;52.978;6.310;2024-03-17T07:09:08;6.80;99.90
54429;DHT22;40337;52.978;6.310;2024-03-17T07:11:34;6.80;99.90
54429;DHT22;40337;52.978;6.310;2024-03-17T07:14:01;6.90;99.90
54429;DHT22;40337;52.978;6.310;2024-03-17T07:16:26;6.90;99.90
54429;DHT22;40337;52.978;6.310;2024-03-17T07:19:11;6.90;99.90
54429;DHT22;40337;52.978;6.310;2024-03-17T07:21:37;7.00;99.90
54429;DHT22;40337;52.978;6.310;2024-03-17T07:24:03;7.00;99.90
54429;DHT22;40337;52.978;6.310;2024-03-17T07:26:30;7.10;99.90
54429;DHT22;40337;52.978;6.310;2024-03-17T07:29:14;7.10;99.90
54429;DHT22;40337;52.978;6.310;2024-03-17T07:31:40;7.30;99.90
54429;DHT22;40337;52.978;6.310;2024-03-17T07:34:06;7.40;99.90
54429;DHT22;40337;52.978;6.310;2024-03-17T07:36:32;7.40;99.90
54429;DHT22;40337;52.978;6.310;2024-03-17T07:38:57;7.50;99.90
54429;DHT22;40337;52.978;6.310;2024-03-17T07:41:23;7.60;99.90
54429;DHT22;40337;52.978;6.310;2024-03-17T07:43:50;7.60;99.90
54429;DHT22;40337;52.978;6.310;2024-03-17T07:46:15;7.60;99.90
54429;DHT22;40337;52.978;6.310;2024-03-17T07:48:43;7.60;99.90
54429;DHT22;40337;52.978;6.310;2024-03-17T07:51:11;7.70;99.90
54429;DHT22;40337;52.978;6.310;2024-03-17T07:53:39;7.70;99.90
54429;DHT22;40337;52.978;6.310;2024-03-17T07:56:07;7.70;99.90
54429;DHT22;40337;52.978;6.310;2024-03-17T07:58:35;7.80;99.90
54429;DHT22;40337;52.978;6.310;2024-03-17T08:01:07;7.80;99.90
54429;DHT22;40337;52.978;6.310;2024-03-17T08:03:36;7.90;99.90
54429;DHT22;40337;52.978;6.310;2024-03-17T08:06:05;8.20;99.90
54429;DHT22;40337;52.978;6.310;2024-03-17T08:08:32;8.40;99.90
54429;DHT22;40337;52.978;6.310;2024-03-17T08:10:58;8.70;99.90
54429;DHT22;40337;52.978;6.310;2024-03-17T08:13:24;8.90;99.90
54429;DHT22;40337;52.978;6.310;2024-03-17T08:16:01;9.20;99.90
54429;DHT22;40337;52.978;6.310;2024-03-17T08:18:27;9.40;99.90
54429;DHT22;40337;52.978;6.310;2024-03-17T08:20:53;9.40;99.90
54429;DHT22;40337;52.978;6.310;2024-03-17T08:23:23;9.30;99.90
54429;DHT22;40337;52.978;6.310;2024-03-17T08:25:53;9.20;99.90
54429;DHT22;40337;52.978;6.310;2024-03-17T08:28:20;9.20;99.90
54429;DHT22;40337;52.978;6.310;2024-03-17T08:30:56;9.10;99.90
54429;DHT22;40337;52.978;6.310;2024-03-17T08:33:22;9.10;99.90
54429;DHT22;40337;52.978;6.310;2024-03-17T08:35:59;9.20;99.90
54429;DHT22;40337;52.978;6.310;2024-03-17T08:38:27;9.40;99.90
54429;DHT22;40337;52.978;6.310;2024-03-17T08:40:54;9.50;99.90
54429;DHT22;40337;52.978;6.310;2024-03-17T08:43:21;9.70;99.90
54429;DHT22;40337;52.978;6.310;2024-03-17T08:46:00;9.90;99.90
54429;DHT22;40337;52.978;6.310;2024-03-17T08:48:32;10.00;99.90
54429;DHT22;40337;52.978;6.310;2024-03-17T08:50:58;10.20;99.90
54429;DHT22;40337;52.978;6.310;2024-03-17T08:53:24;10.40;99.90
54429;DHT22;40337;52.978;6.310;2024-03-17T08:55:50;10.40;99.90
54429;DHT22;40337;52.978;6.310;2024-03-17T08:58:16;10.40;99.90
54429;DHT22;40337;52.978;6.310;2024-03-17T09:00:42;10.50;99.90
54429;DHT22;40337;52.978;6.310;2024-03-17T09:03:08;10.60;99.90
54429;DHT22;40337;52.978;6.310;2024-03-17T09:05:42;10.80;99.90
54429;DHT22;40337;52.978;6.310;2024-03-17T09:08:16;10.80;99.90
54429;DHT22;40337;52.978;6.310;2024-03-17T09:10:43;10.90;99.90
54429;DHT22;40337;52.978;6.310;2024-03-17T09:13:17;10.90;99.90
54429;DHT22;40337;52.978;6.310;2024-03-17T09:15:57;11.00;99.90
54429;DHT22;40337;52.978;6.310;2024-03-17T09:18:27;11.00;99.90
54429;DHT22;40337;52.978;6.310;2024-03-17T09:24:04;11.10;99.90
54429;DHT22;40337;52.978;6.310;2024-03-17T09:26:30;11.00;99.90
54429;DHT22;40337;52.978;6.310;2024-03-17T09:28:56;11.00;99.90
54429;DHT22;40337;52.978;6.310;2024-03-17T09:31:21;11.00;99.90
54429;DHT22;40337;52.978;6.310;2024-03-17T09:33:47;10.90;99.90
54429;DHT22;40337;52.978;6.310;2024-03-17T09:36:14;10.90;99.90
54429;DHT22;40337;52.978;6.310;2024-03-17T09:38:39;10.90;99.90
54429;DHT22;40337;52.978;6.310;2024-03-17T09:43:47;10.90;99.90
54429;DHT22;40337;52.978;6.310;2024-03-17T09:46:14;10.90;99.90
54429;DHT22;40337;52.978;6.310;2024-03-17T09:48:40;11.00;99.90
54429;DHT22;40337;52.978;6.310;2024-03-17T09:51:05;11.10;99.90
54429;DHT22;40337;52.978;6.310;2024-03-17T09:53:35;11.20;99.90
54429;DHT22;40337;52.978;6.310;2024-03-17T09:56:09;11.30;99.90
54429;DHT22;40337;52.978;6.310;2024-03-17T09:58:35;11.40;99.90
54429;DHT22;40337;52.978;6.310;2024-03-17T10:01:01;11.40;99.90
54429;DHT22;40337;52.978;6.310;2024-03-17T10:03:40;11.50;99.90
54429;DHT22;40337;52.978;6.310;2024-03-17T10:06:14;11.50;99.90
54429;DHT22;40337;52.978;6.310;2024-03-17T10:08:50;11.40;99.90
54429;DHT22;40337;52.978;6.310;2024-03-17T10:11:18;11.40;99.90
54429;DHT22;40337;52.978;6.310;2024-03-17T10:13:45;11.40;99.90
54429;DHT22;40337;52.978;6.310;2024-03-17T10:16:25;11.40;99.90
54429;DHT22;40337;52.978;6.310;2024-03-17T10:21:36;11.30;99.90
54429;DHT22;40337;52.978;6.310;2024-03-17T10:24:22;11.20;99.90
54429;DHT22;40337;52.978;6.310;2024-03-17T10:29:35;11.10;99.90
54429;DHT22;40337;52.978;6.310;2024-03-17T10:32:13;11.10;99.90
54429;DHT22;40337;52.978;6.310;2024-03-17T10:34:39;11.10;99.90
54429;DHT22;40337;52.978;6.310;2024-03-17T10:39:50;11.10;99.90
54429;DHT22;40337;52.978;6.310;2024-03-17T10:42:26;11.10;99.90
54429;DHT22;40337;52.978;6.310;2024-03-17T10:44:54;11.20;99.90
54429;DHT22;40337;52.978;6.310;2024-03-17T10:47:25;11.20;99.90
54429;DHT22;40337;52.978;6.310;2024-03-17T10:49:52;11.20;99.90
54429;DHT22;40337;52.978;6.310;2024-03-17T10:52:19;11.20;99.90
54429;DHT22;40337;52.978;6.310;2024-03-17T10:54:50;11.20;99.90
54429;DHT22;40337;52.978;6.310;2024-03-17T11:00:04;11.30;99.90
54429;DHT22;40337;52.978;6.310;2024-03-17T11:02:31;11.30;99.90
54429;DHT22;40337;52.978;6.310;2024-03-17T11:07:43;11.40;99.90
54429;DHT22;40337;52.978;6.310;2024-03-17T11:10:28;11.50;99.90
54429;DHT22;40337;52.978;6.310;2024-03-17T11:12:55;11.60;99.90
54429;DHT22;40337;52.978;6.310;2024-03-17T11:17:53;11.70;99.90
54429;DHT22;40337;52.978;6.310;2024-03-17T11:20:24;11.80;99.90
54429;DHT22;40337;52.978;6.310;2024-03-17T11:22:52;11.90;99.90
54429;DHT22;40337;52.978;6.310;2024-03-17T11:28:03;12.10;99.90
54429;DHT22;40337;52.978;6.310;2024-03-17T11:41:49;13.10;99.90
54429;DHT22;40337;52.978;6.310;2024-03-17T11:47:02;13.40;99.90
54429;DHT22;40337;52.978;6.310;2024-03-17T11:49:41;13.50;99.90
54429;DHT22;40337;52.978;6.310;2024-03-17T11:52:11;13.50;99.90
54429;DHT22;40337;52.978;6.310;2024-03-17T11:54:43;13.50;99.90
54429;DHT22;40337;52.978;6.310;2024-03-17T11:57:13;13.50;99.90
54429;DHT22;40337;52.978;6.310;2024-03-17T11:59:40;13.50;99.90
54429;DHT22;40337;52.978;6.310;2024-03-17T12:02:34;13.60;99.90
54429;DHT22;40337;52.978;6.310;2024-03-17T12:05:04;13.60;99.90
54429;DHT22;40337;52.978;6.310;2024-03-17T12:07:31;13.80;99.90
54429;DHT22;40337;52.978;6.310;2024-03-17T12:09:57;13.80;99.90
54429;DHT22;40337;52.978;6.310;2024-03-17T12:12:24;13.80;99.90
54429;DHT22;40337;52.978;6.310;2024-03-17T12:14:56;13.60;99.90
54429;DHT22;40337;52.978;6.310;2024-03-17T12:17:23;13.60;99.90
54429;DHT22;40337;52.978;6.310;2024-03-17T12:19:49;13.50;99.90
54429;DHT22;40337;52.978;6.310;2024-03-17T12:22:17;13.50;99.90
54429;DHT22;40337;52.978;6.310;2024-03-17T12:24:50;13.40;99.90
54429;DHT22;40337;52.978;6.310;2024-03-17T12:27:18;13.30;99.90
54429;DHT22;40337;52.978;6.310;2024-03-17T12:29:44;13.20;99.90
54429;DHT22;40337;52.978;6.310;2024-03-17T12:34:40;13.20;99.90
54429;DHT22;40337;52.978;6.310;2024-03-17T12:37:06;13.20;99.90
54429;DHT22;40337;52.978;6.310;2024-03-17T12:39:36;13.20;99.90
54429;DHT22;40337;52.978;6.310;2024-03-17T12:42:12;13.20;99.90
54429;DHT22;40337;52.978;6.310;2024-03-17T12:45:01;13.30;99.90
54429;DHT22;40337;52.978;6.310;2024-03-17T12:47:30;13.40;99.90
54429;DHT22;40337;52.978;6.310;2024-03-17T12:49:58;13.40;99.90
54429;DHT22;40337;52.978;6.310;2024-03-17T12:52:32;13.50;99.90
54429;DHT22;40337;52.978;6.310;2024-03-17T12:55:15;13.50;99.90
54429;DHT22;40337;52.978;6.310;2024-03-17T13:00:46;13.50;99.90
54429;DHT22;40337;52.978;6.310;2024-03-17T13:03:24;13.60;99.90
54429;DHT22;40337;52.978;6.310;2024-03-17T13:05:50;13.50;99.90
54429;DHT22;40337;52.978;6.310;2024-03-17T13:08:17;13.40;99.90
54429;DHT22;40337;52.978;6.310;2024-03-17T13:10:42;13.40;99.90
54429;DHT22;40337;52.978;6.310;2024-03-17T13:13:09;13.30;99.90
54429;DHT22;40337;52.978;6.310;2024-03-17T13:15:36;13.30;99.90
54429;DHT22;40337;52.978;6.310;2024-03-17T13:18:05;13.30;99.90
54429;DHT22;40337;52.978;6.310;2024-03-17T13:20:31;13.30;99.90
54429;DHT22;40337;52.978;6.310;2024-03-17T13:22:58;13.30;99.90
54429;DHT22;40337;52.978;6.310;2024-03-17T13:25:26;13.30;99.90
54429;DHT22;40337;52.978;6.310;2024-03-17T13:27:55;13.30;99.90
54429;DHT22;40337;52.978;6.310;2024-03-17T13:30:23;13.30;99.90
54429;DHT22;40337;52.978;6.310;2024-03-17T13:32:50;13.30;99.90
54429;DHT22;40337;52.978;6.310;2024-03-17T13:35:22;13.20;99.90
54429;DHT22;40337;52.978;6.310;2024-03-17T13:37:49;13.20;99.90
54429;DHT22;40337;52.978;6.310;2024-03-17T13:40:17;13.20;99.90
54429;DHT22;40337;52.978;6.310;2024-03-17T13:42:48;13.20;99.90
54429;DHT22;40337;52.978;6.310;2024-03-17T13:45:15;13.20;99.90
54429;DHT22;40337;52.978;6.310;2024-03-17T13:47:47;13.10;99.90
54429;DHT22;40337;52.978;6.310;2024-03-17T13:50:14;13.10;99.90
54429;DHT22;40337;52.978;6.310;2024-03-17T13:52:40;13.10;99.90
54429;DHT22;40337;52.978;6.310;2024-03-17T13:55:12;13.10;99.90
54429;DHT22;40337;52.978;6.310;2024-03-17T13:57:38;13.00;99.90
54429;DHT22;40337;52.978;6.310;2024-03-17T14:00:04;13.00;99.90
54429;DHT22;40337;52.978;6.310;2024-03-17T14:02:33;12.90;99.90
54429;DHT22;40337;52.978;6.310;2024-03-17T14:04:58;12.90;99.90
54429;DHT22;40337;52.978;6.310;2024-03-17T14:07:24;12.80;99.90
54429;DHT22;40337;52.978;6.310;2024-03-17T14:09:50;12.80;99.90
54429;DHT22;40337;52.978;6.310;2024-03-17T14:12:16;12.80;99.90
54429;DHT22;40337;52.978;6.310;2024-03-17T14:14:43;12.80;99.90
54429;DHT22;40337;52.978;6.310;2024-03-17T14:17:09;12.80;99.90
54429;DHT22;40337;52.978;6.310;2024-03-17T14:19:35;12.80;99.90
54429;DHT22;40337;52.978;6.310;2024-03-17T14:22:00;12.80;99.90
54429;DHT22;40337;52.978;6.310;2024-03-17T14:24:26;12.80;99.90
54429;DHT22;40337;52.978;6.310;2024-03-17T14:26:52;12.80;99.90
54429;DHT22;40337;52.978;6.310;2024-03-17T14:29:18;12.80;99.90
54429;DHT22;40337;52.978;6.310;2024-03-17T14:31:43;12.80;99.90
54429;DHT22;40337;52.978;6.310;2024-03-17T14:34:11;12.80;99.90
54429;DHT22;40337;52.978;6.310;2024-03-17T14:36:36;12.70;99.90
54429;DHT22;40337;52.978;6.310;2024-03-17T14:39:02;12.80;99.90
54429;DHT22;40337;52.978;6.310;2024-03-17T14:41:29;12.80;99.90
54429;DHT22;40337;52.978;6.310;2024-03-17T14:43:55;12.80;99.90
54429;DHT22;40337;52.978;6.310;2024-03-17T14:46:23;12.80;99.90
54429;DHT22;40337;52.978;6.310;2024-03-17T14:48:48;12.80;99.90
54429;DHT22;40337;52.978;6.310;2024-03-17T14:51:17;12.80;99.90
54429;DHT22;40337;52.978;6.310;2024-03-17T14:53:42;12.80;99.90
54429;DHT22;40337;52.978;6.310;2024-03-17T14:56:14;12.80;99.90
54429;DHT22;40337;52.978;6.310;2024-03-17T14:58:41;12.90;99.90
54429;DHT22;40337;52.978;6.310;2024-03-17T15:01:07;12.90;99.90
54429;DHT22;40337;52.978;6.310;2024-03-17T15:03:35;12.90;99.90
54429;DHT22;40337;52.978;6.310;2024-03-17T15:06:00;12.90;99.90
54429;DHT22;40337;52.978;6.310;2024-03-17T15:08:26;12.80;99.90
54429;DHT22;40337;52.978;6.310;2024-03-17T15:10:54;12.80;99.90
54429;DHT22;40337;52.978;6.310;2024-03-17T15:13:20;12.80;99.90
54429;DHT22;40337;52.978;6.310;2024-03-17T15:15:46;12.90;99.90
54429;DHT22;40337;52.978;6.310;2024-03-17T15:18:13;12.90;99.90
54429;DHT22;40337;52.978;6.310;2024-03-17T15:20:38;12.80;99.90
54429;DHT22;40337;52.978;6.310;2024-03-17T15:23:04;12.80;99.90
54429;DHT22;40337;52.978;6.310;2024-03-17T15:25:30;12.80;99.90
54429;DHT22;40337;52.978;6.310;2024-03-17T15:27:56;12.70;99.90
54429;DHT22;40337;52.978;6.310;2024-03-17T15:30:22;12.70;99.90
54429;DHT22;40337;52.978;6.310;2024-03-17T15:32:51;12.70;99.90
54429;DHT22;40337;52.978;6.310;2024-03-17T15:35:23;12.60;99.90
54429;DHT22;40337;52.978;6.310;2024-03-17T15:37:49;12.60;99.90
54429;DHT22;40337;52.978;6.310;2024-03-17T15:40:15;12.60;99.90
54429;DHT22;40337;52.978;6.310;2024-03-17T15:42:47;12.50;99.90
54429;DHT22;40337;52.978;6.310;2024-03-17T15:45:14;12.50;99.90
54429;DHT22;40337;52.978;6.310;2024-03-17T15:47:40;12.50;99.90
54429;DHT22;40337;52.978;6.310;2024-03-17T15:50:07;12.40;99.90
54429;DHT22;40337;52.978;6.310;2024-03-17T15:52:33;12.40;99.90
54429;DHT22;40337;52.978;6.310;2024-03-17T15:55:01;12.40;99.90
54429;DHT22;40337;52.978;6.310;2024-03-17T15:57:31;12.40;99.90
54429;DHT22;40337;52.978;6.310;2024-03-17T15:59:57;12.30;99.90
54429;DHT22;40337;52.978;6.310;2024-03-17T16:02:25;12.30;99.90
54429;DHT22;40337;52.978;6.310;2024-03-17T16:04:52;12.30;99.90
54429;DHT22;40337;52.978;6.310;2024-03-17T16:07:21;12.30;99.90
54429;DHT22;40337;52.978;6.310;2024-03-17T16:09:50;12.20;99.90
54429;DHT22;40337;52.978;6.310;2024-03-17T16:12:18;12.20;99.90
54429;DHT22;40337;52.978;6.310;2024-03-17T16:14:44;12.20;99.90
54429;DHT22;40337;52.978;6.310;2024-03-17T16:17:14;12.20;99.90
54429;DHT22;40337;52.978;6.310;2024-03-17T16:19:41;12.10;99.90
54429;DHT22;40337;52.978;6.310;2024-03-17T16:22:08;12.10;99.90
54429;DHT22;40337;52.978;6.310;2024-03-17T16:24:35;12.10;99.90
54429;DHT22;40337;52.978;6.310;2024-03-17T16:27:05;12.10;99.90
54429;DHT22;40337;52.978;6.310;2024-03-17T16:29:33;12.10;99.90